Portada
METAR-TAF:

METAR-TAF

Aeroports :

Txità, Rússia

latitud: 52-05N, longitud: 113-29E, altitud: 685 m

Observació

L'informe es va fer fa 26 minuts, a les 00:00 UTC
Vent 4 kt del Nord-Est
Temperatura -5°C
Humitat 86%
Pressió 1015 hPa
Visibilitat 10 km o més

METAR: UIAA 200000Z 04002MPS 9999 NSC M05/M07 Q1015 R29/70D NOSIG RMK QFE703/0937

Hora: 09:26 (00:26 UTC)

Pronòstic

L'informe es va fer fa 1 hora i 26 minuts, a les 23:00 UTC
Pronòstic vàlid del 20 a les 00 UTC al 20 a les 24 UTC
Vent 6 kt del Oest/Sud-Oest amb ràfegues de 16 kt
Visibilitat 10 km o més
Núvols disperses a una alçada de 4000 ft, Cumulonimbus.

TAF: UIAA 192300Z 2000/2024 24003G08MPS 9999 SCT040CB

Observacions i pronòstics meteorològics de més de 4000 aeroports (METAR i TAF).

Les estacions disponibles són els punts grocs i vermells al mapa.

Posi el ratolí al punt desitjat per veure el nom de l'estació.

Feu clic per veure les observacions i els pronòstics meteorològics.

Per canviar el mapa: feu clic els botons verds amb una creu de color negre per apropar; al botó verd amb un guió per allunyar la imatge; o en les fletxes verdes per a mapes adjacents.


METAR-TAF: